SCFR weather

Frutillar Airport
Frutillar, Los Lagos Region, Chile

Public forecast

Using degrees Celsius for public forecast. Weather courtesy of forecast.io.

Closest aviation weather report (METAR) to Frutillar Airport

Closest report is El Tepual Airport, 18.5 nm (34.3 km) S. Retrieved 2020/05/28 21:00 UTC (53 minutes ago):

SCTE 282100Z 03004KT 9999 SCT020 08/05 Q1020 NOSIG

Closest aviation forecast (TAF) to Frutillar Airport

Closest forecast is El Tepual Airport, 18.5 nm (34.3 km) S. Retrieved 2020/05/28 18:00 UTC (4 hours ago):

TAF SCTE 281630Z 2818/2918 VRB02KT 9999 SCT020 BKN030 TX10/2819Z TNM02/2910Z TEMPO 2818/2823 33005KT 8000 -SHRA SCT010 OVC025 BECMG 2900/2902 CAVOK BECMG 2904/2906 2000 BR BKN015 TEMPO 2909/2912 0300 FG OVC002 BECMG 2914/2916 9999 NSW BKN025